Time;durP1;ratioP1;P1;durP2;ratioP2;P2;SDS_P1;SDS_P2;PMS_P1;PMS_P2;Temp;Humidity;BMP_temperature;BMP_pressure;BME280_temperature;BME280_humidity;BME280_pressure;Samples;Min_cycle;Max_cycle;Signal;HPM_P1;HPM_P2
2023/08/27 00:01:35;;;;;;;11.60;2.40;;;;;;;20.86;93.03;99839.11;110017;1271;22238;-62
2023/08/27 00:04:06;;;;;;;12.10;2.80;;;;;;;20.84;93.17;99841.30;109983;1274;22306;-60
2023/08/27 00:06:37;;;;;;;8.60;2.70;;;;;;;20.82;93.46;99846.66;110012;1273;22795;-60
2023/08/27 00:09:08;;;;;;;11.20;2.30;;;;;;;20.80;93.39;99841.16;110001;1272;22143;-61
2023/08/27 00:11:39;;;;;;;10.70;3.00;;;;;;;20.79;93.66;99842.73;110018;1273;22214;-62
2023/08/27 00:14:10;;;;;;;11.90;3.50;;;;;;;20.80;93.51;99837.60;110007;1276;22887;-61
2023/08/27 00:16:41;;;;;;;16.30;2.80;;;;;;;20.84;93.57;99842.23;110000;1279;22148;-61
2023/08/27 00:19:14;;;;;;;14.90;2.60;;;;;;;20.88;93.57;99844.64;110001;1279;22346;-61
2023/08/27 00:21:45;;;;;;;11.10;3.10;;;;;;;20.92;93.92;99844.00;109986;1279;22211;-61
2023/08/27 00:24:16;;;;;;;8.40;3.20;;;;;;;20.93;93.97;99845.04;110015;1279;22157;-61
2023/08/27 00:26:47;;;;;;;10.90;2.80;;;;;;;20.93;93.83;99841.29;110012;1276;22166;-60
2023/08/27 00:29:19;;;;;;;11.10;2.50;;;;;;;20.94;94.03;99842.80;109989;1273;22678;-61
2023/08/27 00:31:50;;;;;;;11.60;3.10;;;;;;;20.96;94.15;99843.56;110010;1276;22275;-61
2023/08/27 00:34:22;;;;;;;8.90;2.60;;;;;;;20.96;94.33;99842.85;110003;1279;22322;-60
2023/08/27 00:36:52;;;;;;;7.50;2.00;;;;;;;20.94;94.29;99848.15;110026;1279;24661;-62
2023/08/27 00:39:23;;;;;;;12.50;3.00;;;;;;;20.92;94.11;99855.14;110022;1274;22681;-61
2023/08/27 00:41:54;;;;;;;7.80;2.30;;;;;;;20.92;94.25;99853.70;110003;1273;22915;-61
2023/08/27 00:44:26;;;;;;;9.40;2.60;;;;;;;20.94;94.36;99860.89;110005;1273;22219;-61
2023/08/27 00:47:00;;;;;;;8.80;2.60;;;;;;;20.97;94.53;99863.41;110015;1274;22159;-62
2023/08/27 00:49:31;;;;;;;8.90;2.30;;;;;;;20.97;94.59;99869.64;110001;1280;22212;-61
2023/08/27 00:52:02;;;;;;;11.20;2.40;;;;;;;20.96;94.60;99873.20;109998;1279;22182;-61
2023/08/27 00:54:34;;;;;;;8.30;2.30;;;;;;;20.94;94.45;99874.33;110011;1280;22175;-62
2023/08/27 00:57:06;;;;;;;11.60;2.30;;;;;;;20.94;94.55;99872.66;110015;1273;22184;-62
2023/08/27 00:59:38;;;;;;;12.30;2.70;;;;;;;20.94;94.55;99870.63;109997;1279;22188;-61
2023/08/27 01:02:09;;;;;;;8.80;2.40;;;;;;;20.91;94.69;99872.38;109990;1280;22217;-62
2023/08/27 01:04:39;;;;;;;9.20;2.40;;;;;;;20.88;94.63;99869.53;110008;1280;22176;-62
2023/08/27 01:07:16;;;;;;;8.70;1.70;;;;;;;20.86;94.57;99864.56;110003;1273;22256;-61
2023/08/27 01:09:52;;;;;;;9.50;2.20;;;;;;;20.83;94.65;99862.02;109998;1276;22201;-62
2023/08/27 01:12:32;;;;;;;9.00;2.50;;;;;;;20.82;94.71;99863.27;109980;1279;22343;-62
2023/08/27 01:15:07;;;;;;;10.80;2.30;;;;;;;20.82;94.53;99867.45;109979;1280;22541;-61
2023/08/27 01:17:38;;;;;;;9.40;2.30;;;;;;;20.82;94.45;99869.84;109981;1274;23432;-60
2023/08/27 01:20:11;;;;;;;14.00;2.50;;;;;;;20.82;94.70;99872.87;109997;1273;22182;-59
2023/08/27 01:22:43;;;;;;;11.60;2.40;;;;;;;20.81;94.64;99873.02;109971;1279;22294;-61
2023/08/27 01:25:18;;;;;;;9.30;2.30;;;;;;;20.81;94.89;99874.60;110014;1279;22163;-60
2023/08/27 01:27:56;;;;;;;7.60;1.90;;;;;;;20.78;94.95;99873.90;110003;1279;22160;-62
2023/08/27 01:30:32;;;;;;;9.00;1.90;;;;;;;20.74;95.03;99868.62;109972;1273;22605;-62
2023/08/27 01:33:11;;;;;;;9.30;2.10;;;;;;;20.75;95.38;99863.34;109997;1279;22271;-61
2023/08/27 01:35:43;;;;;;;8.50;1.80;;;;;;;20.76;95.49;99862.42;110003;1279;22143;-61
2023/08/27 01:38:14;;;;;;;7.30;2.00;;;;;;;20.77;95.48;99857.05;110023;1277;23013;-61
2023/08/27 01:40:45;;;;;;;8.80;2.30;;;;;;;20.80;95.64;99850.65;109985;1279;22390;-62
2023/08/27 01:43:17;;;;;;;14.70;3.10;;;;;;;20.80;95.49;99844.14;110028;1274;22196;-61
2023/08/27 01:45:47;;;;;;;10.80;2.80;;;;;;;20.82;95.52;99841.20;109960;1273;22530;-60
2023/08/27 01:48:18;;;;;;;9.50;2.30;;;;;;;20.84;95.03;99835.42;110019;1277;22954;-61
2023/08/27 01:50:49;;;;;;;7.90;2.40;;;;;;;20.86;95.20;99823.48;109993;1273;22339;-61
2023/08/27 01:53:20;;;;;;;14.80;4.10;;;;;;;20.87;95.40;99807.14;110008;1275;22350;-62
2023/08/27 01:55:51;;;;;;;13.30;3.30;;;;;;;20.86;95.47;99794.44;110014;1279;22863;-62
2023/08/27 01:58:21;;;;;;;11.60;3.00;;;;;;;20.86;95.34;99786.71;110015;1277;22439;-61
2023/08/27 02:00:53;;;;;;;13.40;3.00;;;;;;;20.86;95.23;99778.61;109987;1279;22159;-60
2023/08/27 02:03:23;;;;;;;8.80;2.20;;;;;;;20.84;94.92;99775.13;109997;1278;22181;-60
2023/08/27 02:05:54;;;;;;;7.30;1.80;;;;;;;20.82;94.37;99772.39;110027;1273;22509;-60
2023/08/27 02:08:25;;;;;;;8.10;1.80;;;;;;;20.80;94.37;99770.13;109986;1273;22208;-60
2023/08/27 02:10:56;;;;;;;9.70;1.90;;;;;;;20.75;94.22;99761.40;110018;1279;22164;-60
2023/08/27 02:13:27;;;;;;;9.70;1.80;;;;;;;20.72;94.23;99758.77;110005;1273;22353;-60
2023/08/27 02:15:58;;;;;;;5.80;1.30;;;;;;;20.70;94.07;99756.08;110035;1276;23349;-60
2023/08/27 02:18:29;;;;;;;8.40;2.20;;;;;;;20.70;93.99;99746.24;110006;1276;22819;-60
2023/08/27 02:20:59;;;;;;;8.60;1.90;;;;;;;20.68;93.88;99735.73;109988;1273;22218;-60
2023/08/27 02:23:30;;;;;;;8.30;2.00;;;;;;;20.67;93.87;99731.27;110036;1279;22172;-60
2023/08/27 02:26:01;;;;;;;7.20;1.50;;;;;;;20.66;93.82;99726.34;110062;1280;23688;-60
2023/08/27 02:28:33;;;;;;;10.40;1.60;;;;;;;20.65;93.78;99732.77;110014;1277;22223;-60
2023/08/27 02:31:05;;;;;;;8.70;1.80;;;;;;;20.64;93.76;99725.80;110019;1279;23142;-60
2023/08/27 02:33:35;;;;;;;6.40;1.40;;;;;;;20.61;93.62;99722.89;110032;1279;22281;-60
2023/08/27 02:36:07;;;;;;;9.10;1.60;;;;;;;20.59;93.41;99725.79;110018;1279;22295;-60
2023/08/27 02:38:38;;;;;;;4.90;1.40;;;;;;;20.53;93.29;99726.63;110009;1271;22197;-60
2023/08/27 02:41:09;;;;;;;8.60;1.70;;;;;;;20.47;93.28;99723.88;110027;1278;22218;-60
2023/08/27 02:43:40;;;;;;;7.00;1.90;;;;;;;20.40;93.18;99724.19;110024;1277;22453;-60
2023/08/27 02:46:11;;;;;;;5.00;1.30;;;;;;;20.35;92.77;99732.20;110035;1279;22281;-60
2023/08/27 02:48:41;;;;;;;7.40;1.00;;;;;;;20.31;92.59;99747.27;110041;1276;22145;-60
2023/08/27 02:51:12;;;;;;;6.80;1.10;;;;;;;20.18;92.39;99770.72;110044;1274;23005;-60
2023/08/27 02:53:43;;;;;;;9.10;1.40;;;;;;;20.02;93.14;99789.38;110016;1280;22184;-60
2023/08/27 02:56:14;;;;;;;6.70;1.60;;;;;;;19.96;93.44;99787.02;110038;1271;22194;-59
2023/08/27 02:58:48;;;;;;;11.30;1.70;;;;;;;19.93;93.21;99780.76;110044;1280;22184;-59
2023/08/27 03:01:21;;;;;;;7.90;1.40;;;;;;;19.89;93.10;99784.36;110041;1280;22251;-59
2023/08/27 03:03:52;;;;;;;7.20;1.50;;;;;;;19.85;93.34;99792.34;110036;1276;22166;-60
2023/08/27 03:06:23;;;;;;;8.10;1.60;;;;;;;19.84;93.67;99797.61;110032;1280;22338;-60
2023/08/27 03:08:54;;;;;;;8.80;1.90;;;;;;;19.83;94.17;99797.65;110028;1277;22374;-59
2023/08/27 03:11:26;;;;;;;15.20;2.20;;;;;;;19.81;94.59;99797.40;109999;1280;22219;-59
2023/08/27 03:13:57;;;;;;;8.10;1.60;;;;;;;19.81;95.24;99798.54;110034;1280;23045;-60
2023/08/27 03:16:28;;;;;;;7.60;2.30;;;;;;;19.80;95.51;99806.27;110013;1279;22650;-60
2023/08/27 03:18:59;;;;;;;10.00;2.00;;;;;;;19.83;95.68;99811.21;110035;1280;22153;-60
2023/08/27 03:21:30;;;;;;;13.10;3.00;;;;;;;19.85;95.93;99810.36;110019;1276;22150;-60
2023/08/27 03:24:01;;;;;;;9.40;2.80;;;;;;;19.89;96.24;99804.91;110011;1279;22160;-60
2023/08/27 03:26:31;;;;;;;7.70;2.50;;;;;;;19.90;96.60;99805.57;109981;1280;22170;-60
2023/08/27 03:29:02;;;;;;;9.70;3.30;;;;;;;19.90;97.00;99798.61;110021;1280;22198;-60
2023/08/27 03:31:33;;;;;;;13.10;4.30;;;;;;;19.89;97.44;99799.81;109964;1277;22159;-60
2023/08/27 03:34:04;;;;;;;10.00;3.20;;;;;;;19.88;97.35;99797.59;110008;1277;22126;-60
2023/08/27 03:36:35;;;;;;;12.70;3.90;;;;;;;19.88;97.35;99798.70;109983;1271;22174;-60
2023/08/27 03:39:08;;;;;;;11.40;3.40;;;;;;;19.84;97.03;99792.10;109987;1276;22144;-60
2023/08/27 03:41:39;;;;;;;10.80;3.00;;;;;;;19.79;96.99;99789.11;110004;1277;22210;-61
2023/08/27 03:44:09;;;;;;;13.60;3.10;;;;;;;19.71;96.68;99790.55;110012;1279;22188;-61
2023/08/27 03:46:42;;;;;;;10.20;2.70;;;;;;;19.64;96.44;99795.70;110012;1273;22924;-60
2023/08/27 03:49:12;;;;;;;10.40;2.70;;;;;;;19.58;96.60;99793.86;110014;1279;22323;-61
2023/08/27 03:51:43;;;;;;;12.00;3.20;;;;;;;19.47;96.44;99794.86;110005;1277;22225;-61
2023/08/27 03:54:14;;;;;;;8.60;2.60;;;;;;;19.35;96.61;99787.71;109996;1280;22179;-61
2023/08/27 03:56:45;;;;;;;9.30;2.90;;;;;;;19.24;96.83;99788.56;109966;1279;22226;-61
2023/08/27 03:59:16;;;;;;;12.70;2.50;;;;;;;19.17;97.03;99775.26;110012;1279;22158;-60
2023/08/27 04:01:47;;;;;;;13.90;3.00;;;;;;;19.11;97.18;99775.04;109985;1274;22161;-59
2023/08/27 04:04:18;;;;;;;9.90;2.70;;;;;;;19.08;97.25;99764.20;110002;1280;22238;-60
2023/08/27 04:06:49;;;;;;;13.70;3.00;;;;;;;19.02;97.28;99750.17;109981;1279;22192;-61
2023/08/27 04:09:20;;;;;;;11.80;3.20;;;;;;;18.97;97.50;99756.70;110008;1273;22645;-61
2023/08/27 04:11:51;;;;;;;12.10;3.10;;;;;;;18.95;97.67;99761.05;110007;1279;22173;-61
2023/08/27 04:14:22;;;;;;;17.80;3.50;;;;;;;18.95;97.86;99754.98;109978;1280;22290;-59
2023/08/27 04:16:53;;;;;;;14.30;3.80;;;;;;;18.95;97.86;99758.73;109991;1279;22177;-60
2023/08/27 04:19:24;;;;;;;13.10;3.20;;;;;;;18.96;98.05;99752.64;109985;1274;22324;-60
2023/08/27 04:21:54;;;;;;;12.50;3.40;;;;;;;18.95;98.00;99755.35;109962;1279;22198;-60
2023/08/27 04:24:25;;;;;;;15.80;3.40;;;;;;;18.95;98.15;99754.36;110011;1280;22406;-61
2023/08/27 04:26:58;;;;;;;10.60;3.20;;;;;;;18.95;98.39;99752.77;110028;1274;22280;-61
2023/08/27 04:29:29;;;;;;;11.20;3.60;;;;;;;18.92;98.56;99749.44;110004;1275;23298;-59
2023/08/27 04:32:00;;;;;;;12.00;3.70;;;;;;;18.90;98.81;99748.20;109992;1273;22159;-59
2023/08/27 04:34:31;;;;;;;10.20;3.20;;;;;;;18.90;98.93;99755.20;110012;1270;22193;-60
2023/08/27 04:37:03;;;;;;;13.00;3.90;;;;;;;18.92;99.05;99754.38;109974;1279;23004;-59
2023/08/27 04:39:34;;;;;;;12.50;3.50;;;;;;;18.95;99.10;99749.32;109978;1279;22283;-61
2023/08/27 04:42:05;;;;;;;16.90;3.30;;;;;;;19.00;99.19;99743.14;110012;1279;22184;-61
2023/08/27 04:44:36;;;;;;;10.80;2.80;;;;;;;19.02;99.14;99746.23;110016;1273;22310;-59
2023/08/27 04:47:07;;;;;;;18.90;3.70;;;;;;;19.05;99.34;99756.55;110007;1279;22184;-60
2023/08/27 04:49:38;;;;;;;12.90;3.30;;;;;;;19.06;99.46;99759.50;109985;1274;22195;-60
2023/08/27 04:52:09;;;;;;;21.60;5.00;;;;;;;19.10;99.79;99756.91;109988;1273;23049;-63
2023/08/27 04:54:40;;;;;;;14.20;3.90;;;;;;;19.13;99.94;99753.02;109992;1277;22789;-61
2023/08/27 04:57:11;;;;;;;13.50;3.60;;;;;;;19.15;99.95;99761.53;109995;1273;22220;-60
2023/08/27 04:59:42;;;;;;;12.90;4.30;;;;;;;19.16;99.95;99773.89;110015;1277;22168;-61
2023/08/27 05:02:13;;;;;;;10.80;4.10;;;;;;;19.20;100.00;99773.12;110007;1279;22154;-61
2023/08/27 05:04:44;;;;;;;22.20;4.10;;;;;;;19.24;100.00;99772.30;109999;1273;22313;-61
2023/08/27 05:07:15;;;;;;;15.90;4.00;;;;;;;19.27;100.00;99774.60;110012;1276;22145;-59
2023/08/27 05:09:46;;;;;;;15.30;3.70;;;;;;;19.28;100.00;99776.22;109941;1276;22205;-62
2023/08/27 05:12:17;;;;;;;21.90;4.30;;;;;;;19.31;100.00;99774.55;109981;1275;22193;-60
2023/08/27 05:14:48;;;;;;;16.30;3.90;;;;;;;19.32;100.00;99764.72;109982;1279;22163;-61
2023/08/27 05:17:19;;;;;;;17.10;4.80;;;;;;;19.30;100.00;99760.44;110015;1279;22173;-60
2023/08/27 05:19:50;;;;;;;14.90;5.20;;;;;;;19.27;100.00;99760.11;109983;1279;23235;-61
2023/08/27 05:22:21;;;;;;;16.40;4.60;;;;;;;19.24;100.00;99757.40;109973;1280;22214;-62
2023/08/27 05:24:52;;;;;;;14.10;5.40;;;;;;;19.24;100.00;99764.90;109984;1280;22139;-62
2023/08/27 05:27:23;;;;;;;13.30;4.90;;;;;;;19.25;100.00;99764.12;109966;1274;22383;-61
2023/08/27 05:29:54;;;;;;;14.20;5.00;;;;;;;19.26;100.00;99764.85;109987;1279;22253;-59
2023/08/27 05:32:25;;;;;;;13.90;4.60;;;;;;;19.29;100.00;99757.26;109969;1273;22339;-59
2023/08/27 05:34:56;;;;;;;15.30;4.80;;;;;;;19.34;100.00;99757.78;109977;1279;22555;-61
2023/08/27 05:37:27;;;;;;;14.00;4.20;;;;;;;19.37;100.00;99745.21;110005;1273;22156;-61
2023/08/27 05:39:58;;;;;;;12.30;4.60;;;;;;;19.39;100.00;99737.71;110016;1280;22886;-62
2023/08/27 05:42:29;;;;;;;13.90;4.60;;;;;;;19.43;100.00;99729.75;109945;1280;22345;-61
2023/08/27 05:45:00;;;;;;;16.00;5.90;;;;;;;19.48;100.00;99717.67;110032;1273;22172;-61
2023/08/27 05:47:31;;;;;;;17.00;6.30;;;;;;;19.54;100.00;99709.09;110008;1280;22191;-60
2023/08/27 05:50:02;;;;;;;15.80;6.30;;;;;;;19.60;100.00;99710.98;109979;1279;23000;-61
2023/08/27 05:52:33;;;;;;;15.10;5.30;;;;;;;19.65;100.00;99718.30;110003;1276;22379;-60
2023/08/27 05:55:05;;;;;;;15.30;6.00;;;;;;;19.70;100.00;99720.91;110002;1279;22944;-59
2023/08/27 05:57:36;;;;;;;15.80;6.60;;;;;;;19.72;100.00;99724.11;109999;1279;22474;-62
2023/08/27 06:00:09;;;;;;;20.90;7.10;;;;;;;19.72;100.00;99718.02;109989;1279;22155;-62
2023/08/27 06:02:41;;;;;;;14.90;6.70;;;;;;;19.76;100.00;99715.33;109984;1279;22180;-60
2023/08/27 06:05:12;;;;;;;15.00;6.50;;;;;;;19.78;100.00;99718.41;109992;1280;22356;-61
2023/08/27 06:07:44;;;;;;;16.20;6.30;;;;;;;19.82;100.00;99722.03;109969;1279;22303;-60
2023/08/27 06:10:15;;;;;;;21.90;6.10;;;;;;;19.87;100.00;99717.91;109986;1274;22334;-61
2023/08/27 06:12:46;;;;;;;16.60;6.30;;;;;;;19.92;100.00;99707.86;109984;1273;22759;-61
2023/08/27 06:15:16;;;;;;;16.30;6.30;;;;;;;19.96;100.00;99697.41;110043;1274;23045;-60
2023/08/27 06:17:47;;;;;;;18.80;6.40;;;;;;;20.04;100.00;99699.16;109981;1276;22212;-59
2023/08/27 06:20:18;;;;;;;15.40;6.30;;;;;;;20.08;100.00;99702.70;110003;1273;22205;-60
2023/08/27 06:22:49;;;;;;;13.40;5.00;;;;;;;20.12;100.00;99695.37;110022;1274;22232;-59
2023/08/27 06:25:21;;;;;;;15.70;5.90;;;;;;;20.22;100.00;99683.27;109994;1279;22156;-60
2023/08/27 06:27:55;;;;;;;17.10;6.00;;;;;;;20.31;100.00;99673.79;109995;1274;22194;-60
2023/08/27 06:30:25;;;;;;;15.30;5.60;;;;;;;20.40;100.00;99681.69;109908;1274;22393;-59
2023/08/27 06:32:56;;;;;;;18.60;5.40;;;;;;;20.49;100.00;99688.65;109967;1272;22794;-60
2023/08/27 06:35:27;;;;;;;14.20;3.20;;;;;;;20.60;100.00;99689.14;109966;1273;22349;-60
2023/08/27 06:37:58;;;;;;;11.30;3.90;;;;;;;20.68;100.00;99689.80;109960;1271;22219;-60
2023/08/27 06:40:29;;;;;;;10.50;3.00;;;;;;;20.77;99.99;99701.60;109769;1273;22432;-59
2023/08/27 06:43:00;;;;;;;11.90;3.10;;;;;;;20.86;99.84;99707.56;109959;1271;22226;-59
2023/08/27 06:45:31;;;;;;;9.90;2.30;;;;;;;20.97;99.58;99712.30;109974;1273;22428;-58
2023/08/27 06:48:02;;;;;;;11.40;3.00;;;;;;;21.06;99.57;99712.08;109993;1272;22518;-60
2023/08/27 06:50:33;;;;;;;8.20;2.70;;;;;;;21.17;99.32;99713.08;109991;1271;22327;-60
2023/08/27 06:53:07;;;;;;;10.30;2.50;;;;;;;21.26;98.72;99712.21;109994;1270;22210;-59
2023/08/27 06:55:37;;;;;;;11.90;3.40;;;;;;;21.32;98.42;99698.21;110031;1279;22407;-60
2023/08/27 06:58:11;;;;;;;12.00;3.90;;;;;;;21.37;98.04;99690.51;110015;1273;22430;-60
2023/08/27 07:00:44;;;;;;;12.40;3.10;;;;;;;21.43;97.60;99688.60;109975;1272;23223;-60
2023/08/27 07:03:15;;;;;;;12.00;3.40;;;;;;;21.47;97.17;99687.70;109998;1273;23392;-60
2023/08/27 07:05:48;;;;;;;10.20;3.30;;;;;;;21.49;97.29;99684.33;109830;1273;22172;-60
2023/08/27 07:08:19;;;;;;;15.80;3.50;;;;;;;21.50;97.28;99677.65;109927;1279;22406;-59
2023/08/27 07:10:50;;;;;;;12.50;3.20;;;;;;;21.52;96.70;99661.52;109956;1279;22218;-60
2023/08/27 07:13:21;;;;;;;10.40;4.20;;;;;;;21.51;96.57;99658.68;109963;1271;22417;-60
2023/08/27 07:19:52;;;;;;;13.40;3.90;;;;;;;21.42;96.41;99674.07;109397;1280;22288;-60
2023/08/27 07:22:23;;;;;;;12.20;3.60;;;;;;;21.47;96.12;99672.70;109505;1279;23065;-60
2023/08/27 07:24:54;;;;;;;13.10;4.40;;;;;;;21.50;95.93;99663.27;109502;1279;22374;-60
2023/08/27 07:27:25;;;;;;;14.20;4.80;;;;;;;21.51;95.65;99660.95;109464;1279;23252;-60
2023/08/27 07:29:56;;;;;;;15.50;4.50;;;;;;;21.54;95.97;99661.95;109507;1285;22251;-60
2023/08/27 07:32:27;;;;;;;15.20;4.60;;;;;;;21.62;95.88;99659.63;109441;1273;22384;-60
2023/08/27 07:34:58;;;;;;;11.80;3.10;;;;;;;21.68;95.05;99651.44;109482;1279;22433;-60
2023/08/27 07:37:28;;;;;;;11.70;3.20;;;;;;;21.77;95.06;99656.39;109487;1279;23897;-60
2023/08/27 07:40:00;;;;;;;13.00;3.30;;;;;;;21.90;95.00;99670.78;109495;1279;22207;-60
2023/08/27 07:42:31;;;;;;;13.20;3.10;;;;;;;21.97;94.06;99679.14;109466;1273;22215;-59
2023/08/27 07:45:02;;;;;;;8.40;1.80;;;;;;;22.05;93.40;99677.03;109381;1279;22310;-59
2023/08/27 07:47:33;;;;;;;8.90;1.90;;;;;;;22.09;92.41;99667.21;109350;1280;22355;-59
2023/08/27 07:50:04;;;;;;;7.10;1.80;;;;;;;22.14;91.75;99669.51;109714;1272;22355;-59
2023/08/27 07:52:35;;;;;;;8.30;2.00;;;;;;;22.22;91.68;99677.75;109911;1276;22305;-59
2023/08/27 07:55:07;;;;;;;6.20;1.80;;;;;;;22.28;91.43;99678.19;109904;1271;22187;-59
2023/08/27 07:57:38;;;;;;;6.10;1.50;;;;;;;22.36;90.92;99674.66;109893;1271;22344;-59
2023/08/27 08:00:13;;;;;;;6.70;1.50;;;;;;;22.44;90.37;99679.17;109950;1269;22310;-60
2023/08/27 08:02:44;;;;;;;8.40;1.60;;;;;;;22.50;89.99;99678.77;109861;1272;22933;-60
2023/08/27 08:05:16;;;;;;;9.50;1.60;;;;;;;22.60;89.33;99679.21;109923;1279;22319;-61
2023/08/27 08:07:47;;;;;;;7.70;1.50;;;;;;;22.66;88.78;99678.15;109920;1276;22377;-60
2023/08/27 08:10:20;;;;;;;9.10;1.90;;;;;;;22.73;88.57;99687.65;109929;1273;22239;-60
2023/08/27 08:12:52;;;;;;;5.70;1.60;;;;;;;22.80;88.17;99685.98;109928;1271;22127;-61
2023/08/27 08:15:23;;;;;;;8.10;1.90;;;;;;;22.85;88.27;99677.88;109954;1264;22325;-60
2023/08/27 08:17:54;;;;;;;7.00;1.40;;;;;;;22.91;88.35;99671.70;109903;1272;22426;-61
2023/08/27 08:20:26;;;;;;;10.10;1.60;;;;;;;23.00;88.42;99664.11;109956;1271;22317;-67
2023/08/27 08:22:56;;;;;;;7.10;1.50;;;;;;;23.10;88.01;99666.71;109881;1260;22270;-61
2023/08/27 08:25:28;;;;;;;8.50;1.50;;;;;;;23.12;86.43;99670.63;109959;1271;22340;-59
2023/08/27 08:28:00;;;;;;;8.30;1.50;;;;;;;23.15;86.65;99668.14;109958;1272;22466;-65
2023/08/27 08:30:30;;;;;;;8.40;1.60;;;;;;;23.18;85.95;99669.56;109864;1273;23187;-62
2023/08/27 08:33:02;;;;;;;5.00;1.40;;;;;;;23.21;85.80;99670.15;109941;1271;22190;-61
2023/08/27 08:35:33;;;;;;;7.50;1.60;;;;;;;23.27;85.61;99666.96;110001;1264;22337;-60
2023/08/27 08:38:04;;;;;;;7.60;1.50;;;;;;;23.33;85.26;99660.05;109943;1274;22353;-60
2023/08/27 08:40:40;;;;;;;7.30;1.70;;;;;;;23.37;84.92;99663.23;109966;1273;22417;-59
2023/08/27 08:43:18;;;;;;;7.90;1.50;;;;;;;23.39;84.47;99663.42;109866;1273;22377;-60
2023/08/27 08:45:58;;;;;;;5.10;1.40;;;;;;;23.36;83.39;99664.41;109906;1273;22233;-61
2023/08/27 08:48:35;;;;;;;10.00;1.80;;;;;;;23.33;84.17;99664.16;109906;1264;22332;-60
2023/08/27 08:51:07;;;;;;;6.80;1.70;;;;;;;23.35;83.86;99671.02;109937;1279;22231;-60
2023/08/27 08:53:43;;;;;;;7.40;1.60;;;;;;;23.36;83.92;99680.73;109965;1271;23554;-59
2023/08/27 08:56:19;;;;;;;8.30;1.60;;;;;;;23.35;83.58;99679.98;109950;1270;22182;-63
2023/08/27 08:59:00;;;;;;;7.20;1.60;;;;;;;23.31;83.62;99677.67;109965;1264;22304;-61
2023/08/27 09:01:32;;;;;;;6.70;1.80;;;;;;;23.30;83.88;99666.28;109911;1273;22959;-61
2023/08/27 09:04:05;;;;;;;8.40;2.00;;;;;;;23.33;84.04;99663.29;109923;1272;22599;-59
2023/08/27 09:06:38;;;;;;;7.70;2.10;;;;;;;23.33;83.62;99672.83;109969;1273;22352;-62
2023/08/27 09:09:10;;;;;;;8.30;2.30;;;;;;;23.27;82.94;99687.60;109946;1272;22147;-61
2023/08/27 09:11:42;;;;;;;9.20;3.10;;;;;;;23.18;83.13;99681.95;109968;1264;23519;-59
2023/08/27 09:14:14;;;;;;;9.50;2.40;;;;;;;23.18;83.77;99674.39;109983;1271;22160;-61
2023/08/27 09:16:45;;;;;;;11.20;3.50;;;;;;;23.21;83.45;99677.24;109959;1264;22640;-60
2023/08/27 09:19:16;;;;;;;12.30;3.10;;;;;;;23.19;83.31;99677.49;109985;1273;23146;-60
2023/08/27 09:21:47;;;;;;;8.40;2.70;;;;;;;23.14;83.31;99666.06;109962;1279;22280;-59
2023/08/27 09:24:19;;;;;;;9.20;2.80;;;;;;;23.12;83.14;99660.77;110011;1264;22306;-60
2023/08/27 09:26:50;;;;;;;9.70;2.80;;;;;;;23.12;83.43;99650.21;109945;1271;22312;-59
2023/08/27 09:29:22;;;;;;;7.40;1.90;;;;;;;23.15;83.38;99653.75;109957;1271;22503;-60
2023/08/27 09:31:58;;;;;;;6.30;1.60;;;;;;;23.18;83.01;99658.14;109994;1264;22195;-60
2023/08/27 09:34:28;;;;;;;8.00;2.00;;;;;;;23.18;83.02;99661.14;109984;1264;23004;-60
2023/08/27 09:36:59;;;;;;;8.80;2.20;;;;;;;23.18;82.58;99664.29;109966;1271;22130;-59
2023/08/27 09:39:31;;;;;;;5.50;1.40;;;;;;;23.17;82.36;99669.57;109986;1270;22409;-60
2023/08/27 09:42:03;;;;;;;5.80;1.50;;;;;;;23.14;82.00;99671.19;109951;1275;22362;-60
2023/08/27 09:44:34;;;;;;;8.60;1.70;;;;;;;23.09;82.29;99668.23;109947;1272;22335;-58
2023/08/27 09:47:08;;;;;;;8.50;1.70;;;;;;;23.11;82.53;99672.20;109956;1279;22218;-60
2023/08/27 09:49:43;;;;;;;9.20;2.00;;;;;;;23.06;81.92;99675.95;109972;1273;22893;-60
2023/08/27 09:52:23;;;;;;;7.80;1.70;;;;;;;22.95;81.84;99681.15;109995;1273;22375;-60
2023/08/27 09:54:54;;;;;;;6.60;1.70;;;;;;;22.87;82.08;99683.37;109925;1271;23696;-60
2023/08/27 09:57:25;;;;;;;6.00;1.70;;;;;;;22.83;82.43;99678.45;109928;1273;23046;-59
2023/08/27 09:59:56;;;;;;;10.70;1.70;;;;;;;22.79;82.23;99678.63;109967;1270;22226;-59
2023/08/27 10:02:27;;;;;;;9.60;2.20;;;;;;;22.78;82.71;99679.20;109955;1272;23656;-59
2023/08/27 10:04:58;;;;;;;6.50;2.00;;;;;;;22.77;82.81;99681.17;109949;1279;22553;-59
2023/08/27 10:07:29;;;;;;;8.30;2.20;;;;;;;22.76;82.65;99678.77;109965;1271;22221;-58
2023/08/27 10:10:02;;;;;;;7.80;1.60;;;;;;;22.73;82.24;99680.19;109943;1276;22208;-60
2023/08/27 10:12:34;;;;;;;10.70;1.90;;;;;;;22.71;82.14;99671.77;109942;1264;22371;-58
2023/08/27 10:15:07;;;;;;;5.90;1.80;;;;;;;22.69;82.33;99662.66;109968;1273;22337;-60
2023/08/27 10:17:38;;;;;;;8.60;2.10;;;;;;;22.69;82.73;99656.80;109986;1273;22296;-58
2023/08/27 10:20:14;;;;;;;11.30;3.10;;;;;;;22.65;83.66;99648.51;109987;1279;22233;-60
2023/08/27 10:22:45;;;;;;;10.10;2.90;;;;;;;22.60;84.26;99648.02;109927;1272;22412;-58
2023/08/27 10:25:18;;;;;;;12.30;2.70;;;;;;;22.53;84.70;99653.12;110006;1279;22343;-58
2023/08/27 10:27:51;;;;;;;11.80;3.00;;;;;;;22.48;85.17;99654.20;109974;1272;22356;-61
2023/08/27 10:30:22;;;;;;;10.10;2.90;;;;;;;22.39;85.73;99658.73;109921;1274;22422;-60
2023/08/27 10:32:54;;;;;;;12.90;3.90;;;;;;;22.32;86.11;99659.36;109977;1271;22431;-60
2023/08/27 10:35:25;;;;;;;11.80;3.10;;;;;;;22.25;86.44;99648.47;109967;1273;22459;-60
2023/08/27 10:37:58;;;;;;;9.10;3.40;;;;;;;22.17;86.44;99644.08;109941;1272;22213;-58
2023/08/27 10:40:30;;;;;;;25.00;4.60;;;;;;;22.08;87.14;99632.95;109974;1264;22945;-60
2023/08/27 10:43:17;;;;;;;10.40;4.00;;;;;;;22.00;87.37;99621.46;109970;1272;22150;-59
2023/08/27 10:45:49;;;;;;;11.30;3.90;;;;;;;21.95;87.52;99630.42;109969;1273;22693;-59
2023/08/27 10:48:30;;;;;;;9.60;3.60;;;;;;;21.94;87.71;99642.77;109973;1264;22437;-58
2023/08/27 10:51:12;;;;;;;11.50;3.10;;;;;;;21.95;87.84;99648.87;109917;1279;22326;-58
2023/08/27 10:53:58;;;;;;;10.80;3.60;;;;;;;21.93;87.89;99648.91;109980;1274;22367;-58
2023/08/27 10:56:34;;;;;;;14.30;3.80;;;;;;;21.87;87.86;99642.30;109935;1273;22353;-58
2023/08/27 10:59:09;;;;;;;12.80;4.50;;;;;;;21.76;88.15;99639.94;109951;1264;22219;-59
2023/08/27 11:01:59;;;;;;;10.00;3.80;;;;;;;21.66;88.35;99640.39;109974;1270;22206;-58
2023/08/27 11:04:37;;;;;;;11.10;3.50;;;;;;;21.60;88.43;99649.48;109964;1264;22422;-58
2023/08/27 11:07:14;;;;;;;11.90;3.40;;;;;;;21.55;88.95;99648.42;109961;1274;23428;-58
2023/08/27 11:09:53;;;;;;;10.70;3.60;;;;;;;21.54;89.37;99642.33;109965;1274;22176;-58
2023/08/27 11:12:29;;;;;;;8.10;2.60;;;;;;;21.48;89.28;99652.85;109940;1271;22227;-58
2023/08/27 11:15:13;;;;;;;11.40;3.80;;;;;;;21.42;89.52;99660.81;109976;1279;22283;-58
2023/08/27 11:17:47;;;;;;;10.90;2.90;;;;;;;21.41;89.49;99663.65;109937;1277;23077;-58
2023/08/27 11:20:24;;;;;;;10.50;3.50;;;;;;;21.36;89.47;99659.54;109969;1272;23363;-58
2023/08/27 11:22:59;;;;;;;9.80;3.40;;;;;;;21.28;89.59;99652.92;109757;1265;230786;-58
2023/08/27 11:25:32;;;;;;;9.50;3.40;;;;;;;21.22;89.77;99642.08;109988;1274;22344;-58
2023/08/27 11:28:04;;;;;;;12.60;3.70;;;;;;;21.21;90.15;99630.00;109953;1279;22415;-58
2023/08/27 11:30:35;;;;;;;7.70;2.90;;;;;;;21.21;90.38;99613.96;109975;1269;22317;-58
2023/08/27 11:33:06;;;;;;;10.90;2.70;;;;;;;21.23;90.48;99597.54;109924;1279;22447;-58
2023/08/27 11:35:38;;;;;;;12.90;3.60;;;;;;;21.26;90.55;99597.45;109932;1264;22217;-57
2023/08/27 11:38:11;;;;;;;9.50;3.40;;;;;;;21.28;90.30;99594.16;109961;1271;23143;-58
2023/08/27 11:40:42;;;;;;;11.70;3.40;;;;;;;21.30;90.57;99591.73;109964;1276;22221;-58
2023/08/27 11:43:13;;;;;;;9.10;2.70;;;;;;;21.36;90.64;99589.41;109956;1279;23462;-58
2023/08/27 11:45:43;;;;;;;10.00;3.10;;;;;;;21.43;90.51;99593.15;109946;1274;22349;-58